sensor_id;sensor_type;location;lat;lon;timestamp;temperature;humidity
11772;DHT22;12556;55.748;13.194;2022-11-14T00:00:43;11.10;99.90
11772;DHT22;12556;55.748;13.194;2022-11-14T00:03:11;11.10;99.90
11772;DHT22;12556;55.748;13.194;2022-11-14T00:05:39;11.20;99.90
11772;DHT22;12556;55.748;13.194;2022-11-14T00:08:13;11.10;99.90
11772;DHT22;12556;55.748;13.194;2022-11-14T00:10:41;11.10;99.90
11772;DHT22;12556;55.748;13.194;2022-11-14T00:13:10;11.10;99.90
11772;DHT22;12556;55.748;13.194;2022-11-14T00:15:37;11.10;99.90
11772;DHT22;12556;55.748;13.194;2022-11-14T00:18:04;11.10;99.90
11772;DHT22;12556;55.748;13.194;2022-11-14T00:20:32;11.10;99.90
11772;DHT22;12556;55.748;13.194;2022-11-14T00:22:59;11.10;99.90
11772;DHT22;12556;55.748;13.194;2022-11-14T00:25:26;11.10;99.90
11772;DHT22;12556;55.748;13.194;2022-11-14T00:27:57;11.10;99.90
11772;DHT22;12556;55.748;13.194;2022-11-14T00:30:24;11.10;99.90
11772;DHT22;12556;55.748;13.194;2022-11-14T00:32:51;11.10;99.90
11772;DHT22;12556;55.748;13.194;2022-11-14T00:35:18;11.10;99.90
11772;DHT22;12556;55.748;13.194;2022-11-14T00:37:45;11.10;99.90
11772;DHT22;12556;55.748;13.194;2022-11-14T00:40:12;11.10;99.90
11772;DHT22;12556;55.748;13.194;2022-11-14T00:42:40;11.10;99.90
11772;DHT22;12556;55.748;13.194;2022-11-14T00:45:09;11.10;99.90
11772;DHT22;12556;55.748;13.194;2022-11-14T00:47:36;11.10;99.90
11772;DHT22;12556;55.748;13.194;2022-11-14T00:50:04;11.10;99.90
11772;DHT22;12556;55.748;13.194;2022-11-14T00:52:33;11.10;99.90
11772;DHT22;12556;55.748;13.194;2022-11-14T00:54:59;11.10;99.90
11772;DHT22;12556;55.748;13.194;2022-11-14T00:57:26;11.10;99.90
11772;DHT22;12556;55.748;13.194;2022-11-14T00:59:53;11.10;99.90
11772;DHT22;12556;55.748;13.194;2022-11-14T01:02:22;11.10;99.90
11772;DHT22;12556;55.748;13.194;2022-11-14T01:04:49;11.20;99.90
11772;DHT22;12556;55.748;13.194;2022-11-14T01:07:16;11.20;99.90
11772;DHT22;12556;55.748;13.194;2022-11-14T01:09:43;11.20;99.90
11772;DHT22;12556;55.748;13.194;2022-11-14T01:12:10;11.20;99.90
11772;DHT22;12556;55.748;13.194;2022-11-14T01:14:38;11.20;99.90
11772;DHT22;12556;55.748;13.194;2022-11-14T01:17:05;11.20;99.90
11772;DHT22;12556;55.748;13.194;2022-11-14T01:19:34;11.10;99.90
11772;DHT22;12556;55.748;13.194;2022-11-14T01:22:01;11.20;99.90
11772;DHT22;12556;55.748;13.194;2022-11-14T01:24:30;11.20;99.90
11772;DHT22;12556;55.748;13.194;2022-11-14T01:26:57;11.20;99.90
11772;DHT22;12556;55.748;13.194;2022-11-14T01:29:23;11.20;99.90
11772;DHT22;12556;55.748;13.194;2022-11-14T01:31:50;11.20;99.90
11772;DHT22;12556;55.748;13.194;2022-11-14T01:34:17;11.20;99.90
11772;DHT22;12556;55.748;13.194;2022-11-14T01:36:45;11.20;99.90
11772;DHT22;12556;55.748;13.194;2022-11-14T01:39:12;11.20;99.90
11772;DHT22;12556;55.748;13.194;2022-11-14T01:41:39;11.20;99.90
11772;DHT22;12556;55.748;13.194;2022-11-14T01:44:12;11.20;99.90
11772;DHT22;12556;55.748;13.194;2022-11-14T01:46:41;11.20;99.90
11772;DHT22;12556;55.748;13.194;2022-11-14T01:49:14;11.20;99.90
11772;DHT22;12556;55.748;13.194;2022-11-14T01:51:48;11.20;99.90
11772;DHT22;12556;55.748;13.194;2022-11-14T01:54:20;11.20;99.90
11772;DHT22;12556;55.748;13.194;2022-11-14T01:56:51;11.20;99.90
11772;DHT22;12556;55.748;13.194;2022-11-14T01:59:24;11.20;99.90
11772;DHT22;12556;55.748;13.194;2022-11-14T02:01:54;11.10;99.90
11772;DHT22;12556;55.748;13.194;2022-11-14T02:04:25;11.10;99.90
11772;DHT22;12556;55.748;13.194;2022-11-14T02:06:57;11.10;99.90
11772;DHT22;12556;55.748;13.194;2022-11-14T02:09:25;11.10;99.90
11772;DHT22;12556;55.748;13.194;2022-11-14T02:11:55;11.10;99.90
11772;DHT22;12556;55.748;13.194;2022-11-14T02:14:22;11.10;99.90
11772;DHT22;12556;55.748;13.194;2022-11-14T02:16:49;11.10;99.90
11772;DHT22;12556;55.748;13.194;2022-11-14T02:19:17;11.10;99.90
11772;DHT22;12556;55.748;13.194;2022-11-14T02:21:45;11.10;99.90
11772;DHT22;12556;55.748;13.194;2022-11-14T02:24:12;11.20;99.90
11772;DHT22;12556;55.748;13.194;2022-11-14T02:26:40;11.10;99.90
11772;DHT22;12556;55.748;13.194;2022-11-14T02:29:09;11.10;99.90
11772;DHT22;12556;55.748;13.194;2022-11-14T02:31:37;11.00;99.90
11772;DHT22;12556;55.748;13.194;2022-11-14T02:34:04;11.10;99.90
11772;DHT22;12556;55.748;13.194;2022-11-14T02:36:31;11.10;99.90
11772;DHT22;12556;55.748;13.194;2022-11-14T02:38:59;11.00;99.90
11772;DHT22;12556;55.748;13.194;2022-11-14T02:41:26;11.00;99.90
11772;DHT22;12556;55.748;13.194;2022-11-14T02:43:53;11.10;99.90
11772;DHT22;12556;55.748;13.194;2022-11-14T02:46:20;11.00;99.90
11772;DHT22;12556;55.748;13.194;2022-11-14T02:48:46;11.00;99.90
11772;DHT22;12556;55.748;13.194;2022-11-14T02:51:13;11.00;99.90
11772;DHT22;12556;55.748;13.194;2022-11-14T02:53:40;11.00;99.90
11772;DHT22;12556;55.748;13.194;2022-11-14T02:56:08;11.00;99.90
11772;DHT22;12556;55.748;13.194;2022-11-14T02:58:35;11.00;99.90
11772;DHT22;12556;55.748;13.194;2022-11-14T03:01:02;11.00;99.90
11772;DHT22;12556;55.748;13.194;2022-11-14T03:03:29;11.00;99.90
11772;DHT22;12556;55.748;13.194;2022-11-14T03:05:58;11.00;99.90
11772;DHT22;12556;55.748;13.194;2022-11-14T03:08:25;11.00;99.90
11772;DHT22;12556;55.748;13.194;2022-11-14T03:10:52;10.90;99.90
11772;DHT22;12556;55.748;13.194;2022-11-14T03:13:21;11.00;99.90
11772;DHT22;12556;55.748;13.194;2022-11-14T03:15:48;11.00;99.90
11772;DHT22;12556;55.748;13.194;2022-11-14T03:18:15;10.90;99.90
11772;DHT22;12556;55.748;13.194;2022-11-14T03:20:42;10.90;99.90
11772;DHT22;12556;55.748;13.194;2022-11-14T03:23:08;10.90;99.90
11772;DHT22;12556;55.748;13.194;2022-11-14T03:25:35;10.90;99.90
11772;DHT22;12556;55.748;13.194;2022-11-14T03:28:02;11.00;99.90
11772;DHT22;12556;55.748;13.194;2022-11-14T03:30:31;11.00;99.90
11772;DHT22;12556;55.748;13.194;2022-11-14T03:32:58;11.00;99.90
11772;DHT22;12556;55.748;13.194;2022-11-14T03:35:25;10.90;99.90
11772;DHT22;12556;55.748;13.194;2022-11-14T03:37:52;11.00;99.90
11772;DHT22;12556;55.748;13.194;2022-11-14T03:40:18;11.00;99.90
11772;DHT22;12556;55.748;13.194;2022-11-14T03:42:45;10.90;99.90
11772;DHT22;12556;55.748;13.194;2022-11-14T03:45:12;10.90;99.90
11772;DHT22;12556;55.748;13.194;2022-11-14T03:47:41;10.90;99.90
11772;DHT22;12556;55.748;13.194;2022-11-14T03:50:08;10.90;99.90
11772;DHT22;12556;55.748;13.194;2022-11-14T03:52:35;10.90;99.90
11772;DHT22;12556;55.748;13.194;2022-11-14T03:55:02;10.90;99.90
11772;DHT22;12556;55.748;13.194;2022-11-14T03:57:29;10.90;99.90
11772;DHT22;12556;55.748;13.194;2022-11-14T03:59:56;10.90;99.90
11772;DHT22;12556;55.748;13.194;2022-11-14T04:02:22;11.00;99.90
11772;DHT22;12556;55.748;13.194;2022-11-14T04:04:51;10.90;99.90
11772;DHT22;12556;55.748;13.194;2022-11-14T04:07:18;10.90;99.90
11772;DHT22;12556;55.748;13.194;2022-11-14T04:09:44;11.00;99.90
11772;DHT22;12556;55.748;13.194;2022-11-14T04:12:11;10.90;99.90
11772;DHT22;12556;55.748;13.194;2022-11-14T04:14:38;10.90;99.90
11772;DHT22;12556;55.748;13.194;2022-11-14T04:17:05;10.90;99.90
11772;DHT22;12556;55.748;13.194;2022-11-14T04:19:32;10.90;99.90
11772;DHT22;12556;55.748;13.194;2022-11-14T04:22:01;10.90;99.90
11772;DHT22;12556;55.748;13.194;2022-11-14T04:24:28;10.90;99.90
11772;DHT22;12556;55.748;13.194;2022-11-14T04:26:55;10.90;99.90
11772;DHT22;12556;55.748;13.194;2022-11-14T04:29:22;10.90;99.90
11772;DHT22;12556;55.748;13.194;2022-11-14T04:31:48;10.90;99.90
11772;DHT22;12556;55.748;13.194;2022-11-14T04:34:15;10.90;99.90
11772;DHT22;12556;55.748;13.194;2022-11-14T04:36:43;10.90;99.90
11772;DHT22;12556;55.748;13.194;2022-11-14T04:39:11;10.90;99.90
11772;DHT22;12556;55.748;13.194;2022-11-14T04:41:38;11.00;99.90
11772;DHT22;12556;55.748;13.194;2022-11-14T04:44:05;10.90;99.90
11772;DHT22;12556;55.748;13.194;2022-11-14T04:46:32;10.90;99.90
11772;DHT22;12556;55.748;13.194;2022-11-14T04:48:59;10.90;99.90
11772;DHT22;12556;55.748;13.194;2022-11-14T04:51:25;10.90;99.90
11772;DHT22;12556;55.748;13.194;2022-11-14T04:53:52;10.90;99.90
11772;DHT22;12556;55.748;13.194;2022-11-14T04:56:21;10.90;99.90
11772;DHT22;12556;55.748;13.194;2022-11-14T04:58:50;10.90;99.90
11772;DHT22;12556;55.748;13.194;2022-11-14T05:01:16;10.90;99.90
11772;DHT22;12556;55.748;13.194;2022-11-14T05:03:43;10.90;99.90
11772;DHT22;12556;55.748;13.194;2022-11-14T05:06:10;10.80;99.90
11772;DHT22;12556;55.748;13.194;2022-11-14T05:08:37;10.90;99.90
11772;DHT22;12556;55.748;13.194;2022-11-14T05:11:04;10.90;99.90
11772;DHT22;12556;55.748;13.194;2022-11-14T05:13:33;10.90;99.90
11772;DHT22;12556;55.748;13.194;2022-11-14T05:16:00;10.90;99.90
11772;DHT22;12556;55.748;13.194;2022-11-14T05:18:27;10.90;99.90
11772;DHT22;12556;55.748;13.194;2022-11-14T05:20:57;10.80;99.90
11772;DHT22;12556;55.748;13.194;2022-11-14T05:23:24;10.80;99.90
11772;DHT22;12556;55.748;13.194;2022-11-14T05:25:58;10.80;99.90
11772;DHT22;12556;55.748;13.194;2022-11-14T05:28:25;10.80;99.90
11772;DHT22;12556;55.748;13.194;2022-11-14T05:30:59;10.80;99.90
11772;DHT22;12556;55.748;13.194;2022-11-14T05:33:26;10.80;99.90
11772;DHT22;12556;55.748;13.194;2022-11-14T05:35:53;10.80;99.90
11772;DHT22;12556;55.748;13.194;2022-11-14T05:38:20;10.80;99.90
11772;DHT22;12556;55.748;13.194;2022-11-14T05:40:47;10.70;99.90
11772;DHT22;12556;55.748;13.194;2022-11-14T05:43:14;10.70;99.90
11772;DHT22;12556;55.748;13.194;2022-11-14T05:45:41;10.70;99.90
11772;DHT22;12556;55.748;13.194;2022-11-14T05:48:09;10.70;99.90
11772;DHT22;12556;55.748;13.194;2022-11-14T05:50:36;10.70;99.90
11772;DHT22;12556;55.748;13.194;2022-11-14T05:53:03;10.60;99.90
11772;DHT22;12556;55.748;13.194;2022-11-14T05:55:30;10.60;99.90
11772;DHT22;12556;55.748;13.194;2022-11-14T05:57:57;10.60;99.90
11772;DHT22;12556;55.748;13.194;2022-11-14T06:00:24;10.60;99.90
11772;DHT22;12556;55.748;13.194;2022-11-14T06:02:51;10.60;99.90
11772;DHT22;12556;55.748;13.194;2022-11-14T06:05:20;10.60;99.90
11772;DHT22;12556;55.748;13.194;2022-11-14T06:07:54;10.60;99.90
11772;DHT22;12556;55.748;13.194;2022-11-14T06:10:21;10.50;99.90
11772;DHT22;12556;55.748;13.194;2022-11-14T06:12:48;10.50;99.90
11772;DHT22;12556;55.748;13.194;2022-11-14T06:15:15;10.50;99.90
11772;DHT22;12556;55.748;13.194;2022-11-14T06:17:43;10.50;99.90
11772;DHT22;12556;55.748;13.194;2022-11-14T06:20:10;10.50;99.90
11772;DHT22;12556;55.748;13.194;2022-11-14T06:22:40;10.50;99.90
11772;DHT22;12556;55.748;13.194;2022-11-14T06:25:07;10.50;99.90
11772;DHT22;12556;55.748;13.194;2022-11-14T06:27:34;10.50;99.90
11772;DHT22;12556;55.748;13.194;2022-11-14T06:30:01;10.40;99.90
11772;DHT22;12556;55.748;13.194;2022-11-14T06:32:28;10.50;99.90
11772;DHT22;12556;55.748;13.194;2022-11-14T06:34:55;10.50;99.90
11772;DHT22;12556;55.748;13.194;2022-11-14T06:37:22;10.50;99.90
11772;DHT22;12556;55.748;13.194;2022-11-14T06:39:50;10.50;99.90
11772;DHT22;12556;55.748;13.194;2022-11-14T06:42:17;10.40;99.90
11772;DHT22;12556;55.748;13.194;2022-11-14T06:44:44;10.50;99.90
11772;DHT22;12556;55.748;13.194;2022-11-14T06:47:11;10.40;99.90
11772;DHT22;12556;55.748;13.194;2022-11-14T06:49:38;10.40;99.90
11772;DHT22;12556;55.748;13.194;2022-11-14T06:52:05;10.40;99.90
11772;DHT22;12556;55.748;13.194;2022-11-14T06:54:32;10.50;99.90
11772;DHT22;12556;55.748;13.194;2022-11-14T06:57:00;10.40;99.90
11772;DHT22;12556;55.748;13.194;2022-11-14T06:59:27;10.40;99.90
11772;DHT22;12556;55.748;13.194;2022-11-14T07:01:54;10.40;99.90
11772;DHT22;12556;55.748;13.194;2022-11-14T07:04:21;10.40;99.90
11772;DHT22;12556;55.748;13.194;2022-11-14T07:06:48;10.40;99.90
11772;DHT22;12556;55.748;13.194;2022-11-14T07:09:14;10.40;99.90
11772;DHT22;12556;55.748;13.194;2022-11-14T07:11:41;10.40;99.90
11772;DHT22;12556;55.748;13.194;2022-11-14T07:14:13;10.40;99.90
11772;DHT22;12556;55.748;13.194;2022-11-14T07:16:39;10.40;99.90
11772;DHT22;12556;55.748;13.194;2022-11-14T07:19:07;10.40;99.90
11772;DHT22;12556;55.748;13.194;2022-11-14T07:21:35;10.40;99.90
11772;DHT22;12556;55.748;13.194;2022-11-14T07:24:02;10.40;99.90
11772;DHT22;12556;55.748;13.194;2022-11-14T07:26:29;10.40;99.90
11772;DHT22;12556;55.748;13.194;2022-11-14T07:28:56;10.40;99.90
11772;DHT22;12556;55.748;13.194;2022-11-14T07:31:24;10.40;99.90
11772;DHT22;12556;55.748;13.194;2022-11-14T07:33:51;10.40;99.90
11772;DHT22;12556;55.748;13.194;2022-11-14T07:36:18;10.40;99.90
11772;DHT22;12556;55.748;13.194;2022-11-14T07:38:45;10.40;99.90
11772;DHT22;12556;55.748;13.194;2022-11-14T07:41:13;10.40;99.90
11772;DHT22;12556;55.748;13.194;2022-11-14T07:43:41;10.40;99.90
11772;DHT22;12556;55.748;13.194;2022-11-14T07:46:11;10.40;99.90
11772;DHT22;12556;55.748;13.194;2022-11-14T07:48:40;10.50;99.90
11772;DHT22;12556;55.748;13.194;2022-11-14T07:51:09;10.40;99.90
11772;DHT22;12556;55.748;13.194;2022-11-14T07:53:37;10.50;99.90
11772;DHT22;12556;55.748;13.194;2022-11-14T07:56:05;10.40;99.90
11772;DHT22;12556;55.748;13.194;2022-11-14T07:58:34;11.00;99.90
11772;DHT22;12556;55.748;13.194;2022-11-14T08:01:02;10.40;99.90
11772;DHT22;12556;55.748;13.194;2022-11-14T08:03:29;10.40;99.90
11772;DHT22;12556;55.748;13.194;2022-11-14T08:06:01;10.40;99.90
11772;DHT22;12556;55.748;13.194;2022-11-14T08:08:28;10.40;99.90
11772;DHT22;12556;55.748;13.194;2022-11-14T08:10:56;10.40;99.90
11772;DHT22;12556;55.748;13.194;2022-11-14T08:13:23;10.40;99.90
11772;DHT22;12556;55.748;13.194;2022-11-14T08:15:51;10.40;99.90
11772;DHT22;12556;55.748;13.194;2022-11-14T08:18:18;10.40;99.90
11772;DHT22;12556;55.748;13.194;2022-11-14T08:20:45;10.40;99.90
11772;DHT22;12556;55.748;13.194;2022-11-14T08:23:13;10.40;99.90
11772;DHT22;12556;55.748;13.194;2022-11-14T08:25:41;10.40;99.90
11772;DHT22;12556;55.748;13.194;2022-11-14T08:28:08;10.40;99.90
11772;DHT22;12556;55.748;13.194;2022-11-14T08:30:35;10.40;99.90
11772;DHT22;12556;55.748;13.194;2022-11-14T08:33:03;10.40;99.90
11772;DHT22;12556;55.748;13.194;2022-11-14T08:35:31;10.40;99.90
11772;DHT22;12556;55.748;13.194;2022-11-14T08:37:59;10.40;99.90
11772;DHT22;12556;55.748;13.194;2022-11-14T08:40:28;10.50;99.90
11772;DHT22;12556;55.748;13.194;2022-11-14T08:42:58;10.40;99.90
11772;DHT22;12556;55.748;13.194;2022-11-14T08:45:26;10.40;99.90
11772;DHT22;12556;55.748;13.194;2022-11-14T08:47:53;10.50;99.90
11772;DHT22;12556;55.748;13.194;2022-11-14T08:50:20;10.50;99.90
11772;DHT22;12556;55.748;13.194;2022-11-14T08:52:50;10.50;99.90
11772;DHT22;12556;55.748;13.194;2022-11-14T08:55:17;10.50;99.90
11772;DHT22;12556;55.748;13.194;2022-11-14T08:57:46;10.50;99.90
11772;DHT22;12556;55.748;13.194;2022-11-14T09:00:14;10.50;99.90
11772;DHT22;12556;55.748;13.194;2022-11-14T09:02:41;10.50;99.90
11772;DHT22;12556;55.748;13.194;2022-11-14T09:05:08;10.50;99.90
11772;DHT22;12556;55.748;13.194;2022-11-14T09:07:36;10.50;99.90
11772;DHT22;12556;55.748;13.194;2022-11-14T09:10:03;10.50;99.90
11772;DHT22;12556;55.748;13.194;2022-11-14T09:12:31;10.50;99.90
11772;DHT22;12556;55.748;13.194;2022-11-14T09:14:59;10.50;99.90
11772;DHT22;12556;55.748;13.194;2022-11-14T09:17:26;10.50;99.90
11772;DHT22;12556;55.748;13.194;2022-11-14T09:19:53;10.50;99.90
11772;DHT22;12556;55.748;13.194;2022-11-14T09:22:20;10.50;99.90
11772;DHT22;12556;55.748;13.194;2022-11-14T09:24:47;10.50;99.90
11772;DHT22;12556;55.748;13.194;2022-11-14T09:27:14;10.50;99.90
11772;DHT22;12556;55.748;13.194;2022-11-14T09:29:41;10.60;99.90
11772;DHT22;12556;55.748;13.194;2022-11-14T09:32:10;10.60;99.90
11772;DHT22;12556;55.748;13.194;2022-11-14T09:34:37;10.60;99.90
11772;DHT22;12556;55.748;13.194;2022-11-14T09:37:07;10.60;99.90
11772;DHT22;12556;55.748;13.194;2022-11-14T09:39:34;10.60;99.90
11772;DHT22;12556;55.748;13.194;2022-11-14T09:42:15;10.60;99.90
11772;DHT22;12556;55.748;13.194;2022-11-14T09:44:52;10.50;99.90
11772;DHT22;12556;55.748;13.194;2022-11-14T09:47:23;10.50;99.90
11772;DHT22;12556;55.748;13.194;2022-11-14T09:49:54;10.50;99.90
11772;DHT22;12556;55.748;13.194;2022-11-14T09:52:28;11.00;99.90
11772;DHT22;12556;55.748;13.194;2022-11-14T09:54:58;10.50;99.90
11772;DHT22;12556;55.748;13.194;2022-11-14T09:57:26;10.50;99.90
11772;DHT22;12556;55.748;13.194;2022-11-14T09:59:54;10.50;99.90
11772;DHT22;12556;55.748;13.194;2022-11-14T10:02:38;10.50;99.90
11772;DHT22;12556;55.748;13.194;2022-11-14T10:05:18;10.50;99.90
11772;DHT22;12556;55.748;13.194;2022-11-14T10:08:01;10.50;99.90
11772;DHT22;12556;55.748;13.194;2022-11-14T10:10:42;10.60;99.90
11772;DHT22;12556;55.748;13.194;2022-11-14T10:13:16;10.50;99.90
11772;DHT22;12556;55.748;13.194;2022-11-14T10:15:52;10.50;99.90
11772;DHT22;12556;55.748;13.194;2022-11-14T10:18:48;10.50;99.90
11772;DHT22;12556;55.748;13.194;2022-11-14T10:21:39;10.50;99.90
11772;DHT22;12556;55.748;13.194;2022-11-14T10:24:23;10.50;99.90
11772;DHT22;12556;55.748;13.194;2022-11-14T10:26:58;10.40;99.90
11772;DHT22;12556;55.748;13.194;2022-11-14T10:29:45;10.40;99.90
11772;DHT22;12556;55.748;13.194;2022-11-14T10:32:25;10.40;99.90
11772;DHT22;12556;55.748;13.194;2022-11-14T10:35:00;10.40;99.90
11772;DHT22;12556;55.748;13.194;2022-11-14T10:37:31;10.40;99.90
11772;DHT22;12556;55.748;13.194;2022-11-14T10:40:11;10.40;99.90
11772;DHT22;12556;55.748;13.194;2022-11-14T10:42:41;10.40;99.90
11772;DHT22;12556;55.748;13.194;2022-11-14T10:45:16;10.40;99.90
11772;DHT22;12556;55.748;13.194;2022-11-14T10:47:48;10.50;99.90
11772;DHT22;12556;55.748;13.194;2022-11-14T10:50:20;10.50;99.90
11772;DHT22;12556;55.748;13.194;2022-11-14T10:52:51;10.40;99.90
11772;DHT22;12556;55.748;13.194;2022-11-14T10:55:19;10.50;99.90
11772;DHT22;12556;55.748;13.194;2022-11-14T10:57:46;10.50;99.90
11772;DHT22;12556;55.748;13.194;2022-11-14T11:00:15;10.50;99.90
11772;DHT22;12556;55.748;13.194;2022-11-14T11:02:48;10.50;99.90
11772;DHT22;12556;55.748;13.194;2022-11-14T11:05:18;10.50;99.90
11772;DHT22;12556;55.748;13.194;2022-11-14T11:07:46;10.50;99.90
11772;DHT22;12556;55.748;13.194;2022-11-14T11:10:32;10.50;99.90
11772;DHT22;12556;55.748;13.194;2022-11-14T11:13:30;10.50;99.90
11772;DHT22;12556;55.748;13.194;2022-11-14T11:15:58;10.60;99.90
11772;DHT22;12556;55.748;13.194;2022-11-14T11:18:28;10.50;99.90
11772;DHT22;12556;55.748;13.194;2022-11-14T11:21:04;10.60;99.90
11772;DHT22;12556;55.748;13.194;2022-11-14T11:23:31;10.60;99.90
11772;DHT22;12556;55.748;13.194;2022-11-14T11:26:00;10.50;99.90
11772;DHT22;12556;55.748;13.194;2022-11-14T11:28:32;10.60;99.90
11772;DHT22;12556;55.748;13.194;2022-11-14T11:31:00;10.60;99.90
11772;DHT22;12556;55.748;13.194;2022-11-14T11:33:29;10.60;99.90
11772;DHT22;12556;55.748;13.194;2022-11-14T11:35:58;10.70;99.90
11772;DHT22;12556;55.748;13.194;2022-11-14T11:38:28;10.70;99.90
11772;DHT22;12556;55.748;13.194;2022-11-14T11:41:04;10.80;99.90
11772;DHT22;12556;55.748;13.194;2022-11-14T11:43:37;10.80;99.90
11772;DHT22;12556;55.748;13.194;2022-11-14T11:46:10;10.80;99.90
11772;DHT22;12556;55.748;13.194;2022-11-14T11:48:40;10.80;99.90
11772;DHT22;12556;55.748;13.194;2022-11-14T11:51:14;10.80;99.90
11772;DHT22;12556;55.748;13.194;2022-11-14T11:53:47;10.80;99.90
11772;DHT22;12556;55.748;13.194;2022-11-14T11:56:20;10.80;99.90
11772;DHT22;12556;55.748;13.194;2022-11-14T11:58:49;10.90;99.90
11772;DHT22;12556;55.748;13.194;2022-11-14T12:01:17;10.90;99.90
11772;DHT22;12556;55.748;13.194;2022-11-14T12:03:47;10.90;99.90
11772;DHT22;12556;55.748;13.194;2022-11-14T12:06:16;11.00;99.90
11772;DHT22;12556;55.748;13.194;2022-11-14T12:09:00;11.00;99.90
11772;DHT22;12556;55.748;13.194;2022-11-14T12:11:32;11.00;99.90
11772;DHT22;12556;55.748;13.194;2022-11-14T12:17:26;11.20;99.90
11772;DHT22;12556;55.748;13.194;2022-11-14T12:23:31;11.20;99.90
11772;DHT22;12556;55.748;13.194;2022-11-14T12:26:13;11.20;99.90
11772;DHT22;12556;55.748;13.194;2022-11-14T12:29:09;11.20;99.90
11772;DHT22;12556;55.748;13.194;2022-11-14T12:31:40;11.20;99.90
11772;DHT22;12556;55.748;13.194;2022-11-14T12:34:16;11.20;99.90
11772;DHT22;12556;55.748;13.194;2022-11-14T12:36:45;11.20;99.90
11772;DHT22;12556;55.748;13.194;2022-11-14T12:39:22;11.20;99.90
11772;DHT22;12556;55.748;13.194;2022-11-14T12:42:00;11.20;99.90
11772;DHT22;12556;55.748;13.194;2022-11-14T12:44:34;11.30;99.90
11772;DHT22;12556;55.748;13.194;2022-11-14T12:47:16;11.20;99.90
11772;DHT22;12556;55.748;13.194;2022-11-14T12:49:59;11.20;99.90
11772;DHT22;12556;55.748;13.194;2022-11-14T12:52:44;11.20;99.90
11772;DHT22;12556;55.748;13.194;2022-11-14T12:55:51;11.30;99.90
11772;DHT22;12556;55.748;13.194;2022-11-14T12:58:30;11.20;99.90
11772;DHT22;12556;55.748;13.194;2022-11-14T13:01:07;11.20;99.90
11772;DHT22;12556;55.748;13.194;2022-11-14T13:03:45;11.20;99.90
11772;DHT22;12556;55.748;13.194;2022-11-14T13:06:22;11.20;99.90
11772;DHT22;12556;55.748;13.194;2022-11-14T13:09:07;11.10;99.90
11772;DHT22;12556;55.748;13.194;2022-11-14T13:11:39;11.10;99.90
11772;DHT22;12556;55.748;13.194;2022-11-14T13:14:25;11.00;99.90
11772;DHT22;12556;55.748;13.194;2022-11-14T13:17:23;11.00;99.90
11772;DHT22;12556;55.748;13.194;2022-11-14T13:20:27;11.00;99.90
11772;DHT22;12556;55.748;13.194;2022-11-14T13:26:39;11.00;99.90
11772;DHT22;12556;55.748;13.194;2022-11-14T13:29:06;11.00;99.90
11772;DHT22;12556;55.748;13.194;2022-11-14T13:31:49;11.00;99.90
11772;DHT22;12556;55.748;13.194;2022-11-14T13:34:35;11.00;99.90
11772;DHT22;12556;55.748;13.194;2022-11-14T13:37:12;11.00;99.90
11772;DHT22;12556;55.748;13.194;2022-11-14T13:39:48;11.00;99.90
11772;DHT22;12556;55.748;13.194;2022-11-14T13:42:43;11.00;99.90
11772;DHT22;12556;55.748;13.194;2022-11-14T13:45:33;11.00;99.90
11772;DHT22;12556;55.748;13.194;2022-11-14T13:48:46;11.00;99.90
11772;DHT22;12556;55.748;13.194;2022-11-14T13:51:20;10.90;99.90
11772;DHT22;12556;55.748;13.194;2022-11-14T13:53:49;10.90;99.90
11772;DHT22;12556;55.748;13.194;2022-11-14T13:56:25;10.80;99.90
11772;DHT22;12556;55.748;13.194;2022-11-14T13:59:19;10.80;99.90
11772;DHT22;12556;55.748;13.194;2022-11-14T14:02:15;10.80;99.90
11772;DHT22;12556;55.748;13.194;2022-11-14T14:04:53;10.70;99.90
11772;DHT22;12556;55.748;13.194;2022-11-14T14:07:29;10.70;99.90
11772;DHT22;12556;55.748;13.194;2022-11-14T14:10:06;10.70;99.90
11772;DHT22;12556;55.748;13.194;2022-11-14T14:12:51;10.60;99.90
11772;DHT22;12556;55.748;13.194;2022-11-14T14:15:24;10.60;99.90
11772;DHT22;12556;55.748;13.194;2022-11-14T14:18:04;10.60;99.90
11772;DHT22;12556;55.748;13.194;2022-11-14T14:20:41;10.50;99.90
11772;DHT22;12556;55.748;13.194;2022-11-14T14:23:22;10.50;99.90
11772;DHT22;12556;55.748;13.194;2022-11-14T14:25:57;10.40;99.90
11772;DHT22;12556;55.748;13.194;2022-11-14T14:28:35;10.40;99.90
11772;DHT22;12556;55.748;13.194;2022-11-14T14:31:10;10.40;99.90
11772;DHT22;12556;55.748;13.194;2022-11-14T14:33:42;10.40;99.90
11772;DHT22;12556;55.748;13.194;2022-11-14T14:36:19;10.40;99.90
11772;DHT22;12556;55.748;13.194;2022-11-14T14:38:46;10.40;99.90
11772;DHT22;12556;55.748;13.194;2022-11-14T14:41:16;10.30;99.90
11772;DHT22;12556;55.748;13.194;2022-11-14T14:43:50;10.40;99.90
11772;DHT22;12556;55.748;13.194;2022-11-14T14:46:27;10.30;99.90
11772;DHT22;12556;55.748;13.194;2022-11-14T14:48:54;10.40;99.90
11772;DHT22;12556;55.748;13.194;2022-11-14T14:51:31;10.40;99.90
11772;DHT22;12556;55.748;13.194;2022-11-14T14:53:58;10.30;99.90
11772;DHT22;12556;55.748;13.194;2022-11-14T14:56:25;10.30;99.90
11772;DHT22;12556;55.748;13.194;2022-11-14T14:58:53;10.30;99.90
11772;DHT22;12556;55.748;13.194;2022-11-14T15:01:21;10.30;99.90
11772;DHT22;12556;55.748;13.194;2022-11-14T15:03:54;10.30;99.90
11772;DHT22;12556;55.748;13.194;2022-11-14T15:06:25;10.80;99.90
11772;DHT22;12556;55.748;13.194;2022-11-14T15:08:57;10.30;99.90
11772;DHT22;12556;55.748;13.194;2022-11-14T15:11:25;10.30;99.90
11772;DHT22;12556;55.748;13.194;2022-11-14T15:13:55;10.30;99.90
11772;DHT22;12556;55.748;13.194;2022-11-14T15:16:23;10.30;99.90
11772;DHT22;12556;55.748;13.194;2022-11-14T15:18:52;10.30;99.90
11772;DHT22;12556;55.748;13.194;2022-11-14T15:21:25;10.30;99.90
11772;DHT22;12556;55.748;13.194;2022-11-14T15:24:01;10.30;99.90
11772;DHT22;12556;55.748;13.194;2022-11-14T15:26:29;10.30;99.90
11772;DHT22;12556;55.748;13.194;2022-11-14T15:29:10;10.20;99.90
11772;DHT22;12556;55.748;13.194;2022-11-14T15:31:44;10.20;99.90
11772;DHT22;12556;55.748;13.194;2022-11-14T15:34:23;10.10;99.90
11772;DHT22;12556;55.748;13.194;2022-11-14T15:37:21;10.10;99.90
11772;DHT22;12556;55.748;13.194;2022-11-14T15:39:50;10.10;99.90
11772;DHT22;12556;55.748;13.194;2022-11-14T15:42:19;10.00;99.90
11772;DHT22;12556;55.748;13.194;2022-11-14T15:44:47;10.00;99.90
11772;DHT22;12556;55.748;13.194;2022-11-14T15:47:19;10.00;99.90